Time;durP1;ratioP1;P1;durP2;ratioP2;P2;SDS_P1;SDS_P2;PMS_P1;PMS_P2;Temp;Humidity;BMP_temperature;BMP_pressure;BME280_temperature;BME280_humidity;BME280_pressure;Samples;Min_cycle;Max_cycle;Signal;HPM_P1;HPM_P2
2022/11/17 00:01:55;;;;;;;24.60;15.43;;;7.60;99.90;;;;;;5134710;27;20042;-72
2022/11/17 00:04:24;;;;;;;20.67;15.38;;;7.70;99.90;;;;;;5118111;27;20030;-73
2022/11/17 00:06:50;;;;;;;23.95;15.60;;;7.60;99.90;;;;;;5131959;27;20046;-72
2022/11/17 00:09:16;;;;;;;21.83;15.20;;;6.90;99.90;;;;;;5134184;27;20593;-73
2022/11/17 00:14:36;;;;;;;24.35;14.98;;;7.70;99.90;;;;;;5130229;27;20495;-72
2022/11/17 00:17:05;;;;;;;22.27;14.95;;;7.70;99.90;;;;;;5133570;27;20053;-72
2022/11/17 00:22:15;;;;;;;18.85;13.80;;;7.70;99.90;;;;;;5128050;27;20081;-72
2022/11/17 00:24:41;;;;;;;17.08;12.38;;;7.70;99.90;;;;;;5115722;27;20060;-73
2022/11/17 00:27:07;;;;;;;21.35;13.90;;;7.50;99.90;;;;;;5140359;27;20189;-71
2022/11/17 00:29:33;;;;;;;22.60;12.93;;;7.70;99.90;;;;;;5141972;27;20437;-72
2022/11/17 00:34:43;;;;;;;16.75;12.38;;;7.70;99.90;;;;;;5141339;27;20043;-72
2022/11/17 00:37:10;;;;;;;17.85;12.35;;;7.70;99.90;;;;;;5131421;27;20051;-72
2022/11/17 00:39:36;;;;;;;15.02;11.65;;;7.70;99.90;;;;;;5133115;27;20051;-72
2022/11/17 00:42:02;;;;;;;17.80;12.73;;;7.70;99.90;;;;;;5125601;27;20053;-72
2022/11/17 00:44:28;;;;;;;14.30;12.00;;;7.70;99.90;;;;;;5119573;27;20479;-71
2022/11/17 00:46:54;;;;;;;17.27;12.20;;;7.70;99.90;;;;;;5108928;27;20088;-72
2022/11/17 00:49:23;;;;;;;17.40;12.07;;;7.70;99.90;;;;;;5145630;27;20034;-71
2022/11/17 00:51:50;;;;;;;17.00;11.25;;;8.90;99.90;;;;;;5127908;27;20038;-72
2022/11/17 00:54:15;;;;;;;14.13;11.48;;;7.70;99.90;;;;;;5125983;27;20035;-71
2022/11/17 00:56:41;;;;;;;16.98;11.55;;;7.70;99.90;;;;;;5147668;27;20390;-72
2022/11/17 00:59:07;;;;;;;13.38;11.15;;;7.70;99.90;;;;;;5125074;27;20039;-72
2022/11/17 01:01:32;;;;;;;14.23;11.20;;;8.90;99.90;;;;;;5121792;27;20066;-72
2022/11/17 01:04:02;;;;;;;13.50;11.88;;;7.70;99.90;;;;;;5143972;27;20127;-72
2022/11/17 01:06:34;;;;;;;14.98;11.65;;;7.70;99.90;;;;;;5110773;27;20035;-72
2022/11/17 01:09:01;;;;;;;18.67;10.73;;;7.70;99.90;;;;;;5108836;27;20031;-72
2022/11/17 01:11:27;;;;;;;17.13;10.43;;;7.70;99.90;;;;;;5125601;27;20042;-72
2022/11/17 01:13:55;;;;;;;15.35;11.10;;;7.70;99.90;;;;;;5140379;27;20512;-72
2022/11/17 01:16:21;;;;;;;13.15;10.60;;;7.70;99.90;;;;;;5139632;27;20041;-72
2022/11/17 01:18:48;;;;;;;15.63;11.35;;;7.70;99.90;;;;;;5116113;27;20035;-72
2022/11/17 01:21:22;;;;;;;14.35;9.55;;;7.70;99.90;;;;;;5138890;27;20047;-72
2022/11/17 01:23:49;;;;;;;12.13;10.38;;;7.70;99.90;;;;;;5139644;27;20102;-72
2022/11/17 01:26:17;;;;;;;14.88;10.00;;;7.70;99.90;;;;;;5130551;27;20052;-73
2022/11/17 01:28:43;;;;;;;12.80;9.90;;;8.80;99.90;;;;;;5128536;27;20045;-72
2022/11/17 01:31:21;;;;;;;12.75;9.68;;;7.70;99.90;;;;;;5135240;27;20612;-72
2022/11/17 01:33:47;;;;;;;11.32;10.00;;;7.70;99.90;;;;;;5126510;27;20050;-72
2022/11/17 01:36:25;;;;;;;11.57;10.38;;;8.00;99.90;;;;;;5128615;27;20117;-72
2022/11/17 01:38:51;;;;;;;14.70;10.23;;;7.70;99.90;;;;;;5130917;27;20679;-72
2022/11/17 01:41:23;;;;;;;17.30;10.20;;;7.70;99.90;;;;;;5112832;27;20090;-72
2022/11/17 01:43:57;;;;;;;12.55;10.07;;;7.70;99.90;;;;;;5132161;27;20689;-72
2022/11/17 01:46:38;;;;;;;13.02;9.65;;;7.70;99.90;;;;;;5125992;27;20069;-72
2022/11/17 01:49:24;;;;;;;13.38;10.48;;;7.60;99.90;;;;;;5124800;27;20102;-73
2022/11/17 01:52:03;;;;;;;15.55;9.88;;;9.00;99.90;;;;;;5140843;27;20087;-72
2022/11/17 01:54:32;;;;;;;15.95;10.73;;;7.70;99.90;;;;;;5111261;27;20117;-72
2022/11/17 01:57:01;;;;;;;14.25;10.18;;;7.70;99.90;;;;;;5148173;27;20103;-72
2022/11/17 01:59:39;;;;;;;13.43;10.00;;;7.70;99.90;;;;;;5126214;27;20039;-72
2022/11/17 02:02:06;;;;;;;11.90;9.60;;;7.60;99.90;;;;;;5149855;27;20116;-72
2022/11/17 02:04:39;;;;;;;17.05;10.38;;;7.70;99.90;;;;;;5125128;27;20035;-73
2022/11/17 02:07:14;;;;;;;13.48;9.55;;;7.70;99.90;;;;;;5125433;27;20042;-72
2022/11/17 02:09:41;;;;;;;12.80;10.25;;;7.70;99.90;;;;;;5140180;27;20038;-72
2022/11/17 02:12:12;;;;;;;17.67;10.70;;;7.60;99.90;;;;;;5131844;27;20453;-72
2022/11/17 02:14:39;;;;;;;12.55;10.98;;;7.70;99.90;;;;;;5124786;27;20049;-72
2022/11/17 02:17:07;;;;;;;15.52;10.98;;;7.70;99.90;;;;;;5145722;27;20110;-71
2022/11/17 02:19:38;;;;;;;13.40;10.52;;;7.70;99.90;;;;;;5112308;27;20074;-72
2022/11/17 02:22:07;;;;;;;12.00;9.18;;;7.60;99.90;;;;;;5115144;27;20041;-71
2022/11/17 02:24:38;;;;;;;15.43;10.57;;;7.60;99.90;;;;;;5133530;27;20043;-72
2022/11/17 02:27:30;;;;;;;14.27;9.93;;;7.60;99.90;;;;;;5123862;27;20446;-72
2022/11/17 02:30:02;;;;;;;13.27;10.43;;;7.60;99.90;;;;;;5122496;27;20042;-72
2022/11/17 02:32:53;;;;;;;15.68;11.45;;;7.60;99.90;;;;;;5131352;27;20071;-73
2022/11/17 02:35:25;;;;;;;16.83;12.32;;;7.60;99.90;;;;;;5147981;27;20030;-73
2022/11/17 02:38:00;;;;;;;15.07;10.90;;;7.50;99.90;;;;;;5124252;27;20038;-72
2022/11/17 02:40:32;;;;;;;13.45;10.73;;;7.50;99.90;;;;;;5131569;27;20058;-72
2022/11/17 02:46:01;;;;;;;12.95;10.48;;;7.40;99.90;;;;;;5119636;27;20035;-72
2022/11/17 02:48:32;;;;;;;14.18;11.75;;;7.50;99.90;;;;;;5120391;27;20050;-72
2022/11/17 02:50:59;;;;;;;15.65;11.40;;;7.40;99.90;;;;;;5144211;27;20042;-72
2022/11/17 02:53:26;;;;;;;15.43;11.98;;;7.40;99.90;;;;;;5146221;27;20053;-72
2022/11/17 02:55:53;;;;;;;17.08;12.30;;;7.40;99.90;;;;;;5147379;27;20042;-72
2022/11/17 02:58:20;;;;;;;21.73;12.43;;;7.40;99.90;;;;;;5113010;27;20594;-72
2022/11/17 03:01:00;;;;;;;13.02;11.60;;;7.40;99.90;;;;;;5105810;27;20065;-72
2022/11/17 03:03:35;;;;;;;17.60;12.63;;;7.40;99.90;;;;;;5125006;27;20034;-72
2022/11/17 03:06:24;;;;;;;17.10;13.32;;;7.40;99.90;;;;;;5122627;27;20554;-72
2022/11/17 03:09:17;;;;;;;13.63;11.98;;;7.40;99.90;;;;;;5121519;27;20043;-72
2022/11/17 03:11:49;;;;;;;16.13;11.80;;;7.30;99.90;;;;;;5106952;27;20050;-73
2022/11/17 03:14:19;;;;;;;15.95;13.07;;;7.30;99.90;;;;;;5149554;27;20041;-72
2022/11/17 03:17:07;;;;;;;15.30;12.63;;;7.60;99.90;;;;;;5150728;27;20093;-72
2022/11/17 03:20:10;;;;;;;21.42;13.35;;;7.40;99.90;;;;;;5133717;27;20031;-72
2022/11/17 03:22:52;;;;;;;17.25;13.35;;;7.30;99.90;;;;;;5115285;27;20121;-72
2022/11/17 03:25:21;;;;;;;19.75;13.93;;;7.30;99.90;;;;;;5127347;27;20569;-73
2022/11/17 03:27:52;;;;;;;15.50;12.88;;;7.20;99.90;;;;;;5142255;27;20064;-72
2022/11/17 03:30:21;;;;;;;14.23;12.43;;;8.90;99.90;;;;;;5130274;27;20035;-72
2022/11/17 03:32:52;;;;;;;15.63;13.43;;;7.20;99.90;;;;;;5148090;27;20413;-72
2022/11/17 03:35:23;;;;;;;17.15;12.95;;;7.20;99.90;;;;;;5130533;27;20077;-72
2022/11/17 03:37:53;;;;;;;17.67;13.95;;;7.20;99.90;;;;;;5132733;27;20042;-72
2022/11/17 03:40:25;;;;;;;17.73;13.65;;;7.20;99.90;;;;;;5118492;27;20121;-72
2022/11/17 03:42:55;;;;;;;14.88;13.13;;;8.10;99.90;;;;;;5141185;27;20050;-72
2022/11/17 03:45:27;;;;;;;17.70;13.82;;;7.20;99.90;;;;;;5115390;27;20686;-72
2022/11/17 03:48:02;;;;;;;17.35;14.27;;;7.10;99.90;;;;;;5133183;27;20042;-73
2022/11/17 03:50:33;;;;;;;16.17;12.98;;;7.10;99.90;;;;;;5143834;27;20047;-73
2022/11/17 03:53:01;;;;;;;14.93;12.88;;;7.10;99.90;;;;;;5117632;27;20043;-74
2022/11/17 03:55:37;;;;;;;14.75;13.20;;;7.10;99.90;;;;;;5142742;27;20096;-73
2022/11/17 03:58:08;;;;;;;13.43;12.00;;;6.50;99.90;;;;;;5113351;27;20049;-73
2022/11/17 04:00:35;;;;;;;14.30;12.90;;;7.10;99.90;;;;;;5113534;27;20091;-73
2022/11/17 04:03:01;;;;;;;16.77;14.18;;;7.10;99.90;;;;;;5129247;27;20046;-73
2022/11/17 04:05:26;;;;;;;13.45;12.07;;;7.10;99.90;;;;;;5133252;27;20435;-73
2022/11/17 04:07:52;;;;;;;16.25;13.15;;;7.50;99.90;;;;;;5133749;27;20051;-73
2022/11/17 04:10:21;;;;;;;15.63;12.95;;;7.10;99.90;;;;;;5143455;27;20473;-72
2022/11/17 04:18:17;;;;;;;13.60;11.38;;;7.00;99.90;;;;;;5142526;27;20564;-73
2022/11/17 04:20:44;;;;;;;12.13;10.95;;;7.10;99.90;;;;;;5133380;27;20054;-72
2022/11/17 04:23:13;;;;;;;14.65;12.65;;;8.30;99.90;;;;;;5142017;27;20046;-72
2022/11/17 04:28:38;;;;;;;15.30;13.63;;;7.00;99.90;;;;;;5143414;27;20721;-73
2022/11/17 04:31:17;;;;;;;12.73;11.43;;;7.00;99.90;;;;;;5134002;27;20712;-73
2022/11/17 04:33:51;;;;;;;14.68;13.25;;;7.00;99.90;;;;;;5131849;27;20050;-73
2022/11/17 04:36:19;;;;;;;13.80;12.30;;;7.00;99.90;;;;;;5122808;27;20063;-73
2022/11/17 04:38:50;;;;;;;16.85;12.55;;;7.30;99.90;;;;;;5115289;27;20042;-74
2022/11/17 04:44:02;;;;;;;13.50;12.02;;;7.00;99.90;;;;;;5144122;27;20402;-73
2022/11/17 04:46:30;;;;;;;13.85;12.45;;;6.90;99.90;;;;;;5106589;27;20035;-73
2022/11/17 04:48:56;;;;;;;15.13;12.25;;;6.90;99.90;;;;;;5150982;27;20039;-73
2022/11/17 04:51:23;;;;;;;14.23;11.23;;;7.10;99.90;;;;;;5126867;27;20398;-73
2022/11/17 04:53:49;;;;;;;12.90;11.48;;;8.10;99.90;;;;;;5143776;27;20087;-73
2022/11/17 04:56:15;;;;;;;12.70;10.32;;;6.80;99.90;;;;;;5108035;27;20428;-73
2022/11/17 04:58:41;;;;;;;11.05;9.95;;;6.80;99.90;;;;;;5124710;27;20493;-73
2022/11/17 05:01:13;;;;;;;14.40;10.95;;;8.60;99.90;;;;;;5130343;27;20050;-73
2022/11/17 05:03:49;;;;;;;12.55;11.13;;;6.80;99.90;;;;;;5133797;27;20052;-73
2022/11/17 05:06:21;;;;;;;12.32;10.52;;;6.80;99.90;;;;;;5142082;27;20074;-73
2022/11/17 05:08:46;;;;;;;11.95;10.10;;;8.70;99.90;;;;;;5142475;27;21318;-73
2022/11/17 05:13:57;;;;;;;11.82;10.63;;;6.40;99.90;;;;;;5141005;27;20030;-72
2022/11/17 05:19:11;;;;;;;11.05;8.85;;;6.70;99.90;;;;;;5141053;27;20039;-73
2022/11/17 05:21:36;;;;;;;11.10;10.00;;;6.70;99.90;;;;;;5129687;27;20049;-72
2022/11/17 05:24:03;;;;;;;11.95;10.20;;;6.70;99.90;;;;;;5145576;27;20034;-72
2022/11/17 05:26:31;;;;;;;10.73;9.63;;;6.70;99.90;;;;;;5147912;27;20076;-73
2022/11/17 05:28:58;;;;;;;13.48;11.55;;;6.70;99.90;;;;;;5123917;27;20117;-72
2022/11/17 05:31:25;;;;;;;11.82;10.23;;;6.70;99.90;;;;;;5108676;27;20050;-73
2022/11/17 05:33:51;;;;;;;11.38;10.23;;;6.70;99.90;;;;;;5119293;27;20035;-72
2022/11/17 05:36:18;;;;;;;10.68;9.68;;;6.60;99.90;;;;;;5110862;27;20058;-73
2022/11/17 05:38:45;;;;;;;10.52;9.52;;;6.60;99.90;;;;;;5118714;27;20043;-73
2022/11/17 05:41:10;;;;;;;10.88;9.68;;;6.60;99.90;;;;;;5142124;27;20030;-73
2022/11/17 05:43:36;;;;;;;11.68;10.02;;;6.60;99.90;;;;;;5141525;27;20047;-73
2022/11/17 05:46:02;;;;;;;9.82;8.93;;;6.50;99.90;;;;;;5131487;27;20519;-73
2022/11/17 05:48:28;;;;;;;10.35;9.38;;;6.50;99.90;;;;;;5104146;27;20026;-73
2022/11/17 05:50:55;;;;;;;9.40;8.40;;;6.50;99.90;;;;;;5120035;27;20084;-73
2022/11/17 05:53:22;;;;;;;9.68;8.80;;;6.50;99.90;;;;;;5131212;27;20034;-73
2022/11/17 05:55:48;;;;;;;10.40;9.32;;;6.50;99.90;;;;;;5129148;27;20047;-73
2022/11/17 05:58:25;;;;;;;9.18;8.27;;;6.40;99.90;;;;;;5129440;27;20046;-73
2022/11/17 06:00:53;;;;;;;9.63;8.65;;;6.40;99.90;;;;;;5112797;27;20045;-73
2022/11/17 06:03:26;;;;;;;9.48;8.55;;;6.40;99.90;;;;;;5142385;27;20487;-74
2022/11/17 06:05:52;;;;;;;9.10;8.18;;;6.40;99.90;;;;;;5105577;27;20051;-74
2022/11/17 06:08:18;;;;;;;9.32;8.23;;;6.40;99.90;;;;;;5123717;27;20046;-74
2022/11/17 06:10:44;;;;;;;8.98;7.85;;;6.40;99.90;;;;;;5143974;27;20075;-74
2022/11/17 06:13:10;;;;;;;8.20;7.40;;;7.60;99.90;;;;;;5123640;27;20127;-74
2022/11/17 06:15:36;;;;;;;7.88;7.07;;;6.40;99.90;;;;;;5123272;27;20462;-74
2022/11/17 06:18:07;;;;;;;8.05;7.35;;;7.60;99.90;;;;;;5106041;27;20138;-74
2022/11/17 06:20:36;;;;;;;8.85;7.65;;;6.40;99.90;;;;;;5125384;27;20517;-73
2022/11/17 06:23:04;;;;;;;7.70;7.00;;;6.40;99.90;;;;;;5108961;27;20079;-74
2022/11/17 06:25:33;;;;;;;8.38;6.35;;;7.20;99.90;;;;;;5141792;27;20389;-73
2022/11/17 06:28:15;;;;;;;5.88;5.38;;;6.30;99.90;;;;;;4812775;27;10000720;-74
2022/11/17 06:30:41;;;;;;;7.70;6.90;;;6.40;99.90;;;;;;5104391;27;20282;-73
2022/11/17 06:33:11;;;;;;;7.65;6.85;;;6.40;99.90;;;;;;5141028;27;20066;-74
2022/11/17 06:35:37;;;;;;;7.90;7.20;;;6.20;99.90;;;;;;5120674;27;20058;-75
2022/11/17 06:38:03;;;;;;;6.75;6.15;;;7.80;99.90;;;;;;5105808;27;20080;-75
2022/11/17 06:40:29;;;;;;;6.97;6.38;;;8.00;99.90;;;;;;5100787;27;20079;-75
2022/11/17 06:43:08;;;;;;;8.07;6.20;;;6.30;99.90;;;;;;5121304;27;20241;-73
2022/11/17 06:45:42;;;;;;;6.65;5.97;;;6.30;99.90;;;;;;5109232;27;20137;-74
2022/11/17 06:48:08;;;;;;;;;;;6.40;99.90;;;;;;5110689;27;20646;-73
2022/11/17 06:50:34;;;;;;;6.82;5.75;;;6.30;99.90;;;;;;5105190;27;19927;-73
2022/11/17 06:53:04;;;;;;;6.45;5.95;;;6.30;99.90;;;;;;5130146;27;20081;-73
2022/11/17 06:55:30;;;;;;;6.00;5.50;;;7.50;99.90;;;;;;5121110;27;20088;-73
2022/11/17 06:58:00;;;;;;;6.32;5.72;;;6.60;99.90;;;;;;5131095;27;20039;-73
2022/11/17 07:00:27;;;;;;;5.97;5.40;;;7.50;99.90;;;;;;5120731;27;20074;-73
2022/11/17 07:02:57;;;;;;;5.75;5.30;;;6.70;99.90;;;;;;5111296;27;20094;-73
2022/11/17 07:05:23;;;;;;;7.13;6.43;;;7.70;99.90;;;;;;5122934;28;20047;-73
2022/11/17 07:07:48;;;;;;;6.68;6.00;;;6.30;99.90;;;;;;5114058;27;20482;-73
2022/11/17 07:10:14;;;;;;;6.38;5.88;;;6.30;99.90;;;;;;5106742;27;20038;-72
2022/11/17 07:12:40;;;;;;;6.10;5.60;;;6.30;99.90;;;;;;5130540;27;20043;-72
2022/11/17 07:15:06;;;;;;;6.82;6.22;;;6.30;99.90;;;;;;5125845;27;20046;-73
2022/11/17 07:17:32;;;;;;;7.82;7.13;;;6.30;99.90;;;;;;5109558;27;20035;-72
2022/11/17 07:19:57;;;;;;;6.57;5.90;;;6.70;99.90;;;;;;5141114;27;20458;-72
2022/11/17 07:22:23;;;;;;;6.80;6.25;;;7.40;99.90;;;;;;5122260;27;20047;-73
2022/11/17 07:24:49;;;;;;;6.65;6.05;;;6.30;99.90;;;;;;5124844;27;20039;-73
2022/11/17 07:27:14;;;;;;;5.90;5.45;;;6.40;99.90;;;;;;5142767;27;20035;-73
2022/11/17 07:29:40;;;;;;;6.75;6.15;;;6.30;99.90;;;;;;5104310;27;20039;-72
2022/11/17 07:32:05;;;;;;;6.53;5.93;;;6.40;99.90;;;;;;5148082;27;20045;-72
2022/11/17 07:34:31;;;;;;;6.97;6.25;;;6.30;99.90;;;;;;5139044;27;20118;-73
2022/11/17 07:36:57;;;;;;;7.15;6.43;;;6.30;99.90;;;;;;5145259;27;20055;-72
2022/11/17 07:39:23;;;;;;;7.82;6.53;;;6.30;99.90;;;;;;5119961;28;20074;-73
2022/11/17 07:41:48;;;;;;;6.78;5.97;;;7.50;99.90;;;;;;5140870;27;20446;-73
2022/11/17 07:44:14;;;;;;;7.63;6.50;;;6.30;99.90;;;;;;5127172;27;20363;-73
2022/11/17 07:46:40;;;;;;;6.57;5.78;;;6.60;99.90;;;;;;5104824;27;20436;-73
2022/11/17 07:49:06;;;;;;;6.50;5.90;;;6.30;99.90;;;;;;5124814;27;20139;-73
2022/11/17 07:51:32;;;;;;;7.28;6.57;;;6.30;99.90;;;;;;5119838;27;20126;-73
2022/11/17 07:53:57;;;;;;;5.55;5.07;;;6.30;99.90;;;;;;5110391;28;20606;-73
2022/11/17 07:56:23;;;;;;;6.60;6.00;;;6.30;99.90;;;;;;5118881;28;20471;-74
2022/11/17 07:58:49;;;;;;;6.15;5.53;;;6.20;99.90;;;;;;5125513;27;20045;-73
2022/11/17 08:01:14;;;;;;;6.38;5.88;;;6.30;99.90;;;;;;5145226;27;20042;-73
2022/11/17 08:03:40;;;;;;;6.57;5.88;;;6.20;99.90;;;;;;5108196;27;20051;-73
2022/11/17 08:06:08;;;;;;;5.55;4.78;;;6.20;99.90;;;;;;5129058;27;20082;-73
2022/11/17 08:08:34;;;;;;;6.00;5.40;;;7.40;99.90;;;;;;5125169;27;20802;-72
2022/11/17 08:11:05;;;;;;;5.72;5.20;;;6.30;99.90;;;;;;5129675;27;20397;-72
2022/11/17 08:13:32;;;;;;;66.75;38.10;;;6.30;99.90;;;;;;5123689;27;20031;-73
2022/11/17 08:15:58;;;;;;;5.75;5.25;;;6.30;99.90;;;;;;5109764;27;20394;-72
2022/11/17 08:18:25;;;;;;;5.60;5.13;;;7.40;99.90;;;;;;5124619;27;20439;-73
2022/11/17 08:20:50;;;;;;;5.43;4.93;;;6.30;99.90;;;;;;5126722;27;20470;-73
2022/11/17 08:23:16;;;;;;;5.45;4.95;;;6.30;99.90;;;;;;5126725;27;20049;-72
2022/11/17 08:25:42;;;;;;;5.57;5.07;;;6.30;99.90;;;;;;5107044;27;20043;-73
2022/11/17 08:28:08;;;;;;;8.05;4.70;;;6.30;99.90;;;;;;5112201;27;20038;-73
2022/11/17 08:30:34;;;;;;;5.97;5.38;;;6.30;99.90;;;;;;5126816;27;20173;-73
2022/11/17 08:33:01;;;;;;;6.15;5.57;;;6.30;99.90;;;;;;5108483;27;20442;-73
2022/11/17 08:35:27;;;;;;;6.10;5.60;;;6.30;99.90;;;;;;5144437;27;20505;-73
2022/11/17 08:37:53;;;;;;;5.88;5.35;;;6.30;99.90;;;;;;5102151;28;20055;-73
2022/11/17 08:40:19;;;;;;;5.50;5.05;;;6.30;99.90;;;;;;5102865;28;20157;-73
2022/11/17 08:42:46;;;;;;;6.18;5.60;;;6.30;99.90;;;;;;5100565;28;20047;-73
2022/11/17 08:45:12;;;;;;;6.30;5.72;;;6.30;99.90;;;;;;5102843;28;20475;-73
2022/11/17 08:47:39;;;;;;;6.30;5.70;;;6.30;99.90;;;;;;5101361;28;20040;-73
2022/11/17 08:50:05;;;;;;;6.10;5.57;;;6.60;99.90;;;;;;5106283;28;20581;-73
2022/11/17 08:52:31;;;;;;;6.60;5.95;;;6.30;99.90;;;;;;5103425;28;20044;-73
2022/11/17 08:54:57;;;;;;;5.88;5.38;;;6.30;99.90;;;;;;5105642;28;20466;-73
2022/11/17 08:57:22;;;;;;;6.45;5.85;;;6.30;99.90;;;;;;5106873;28;20134;-73
2022/11/17 08:59:48;;;;;;;6.82;6.22;;;6.30;99.90;;;;;;5101172;28;20048;-73
2022/11/17 09:02:14;;;;;;;7.40;6.70;;;6.30;99.90;;;;;;5102801;28;20128;-74
2022/11/17 09:04:40;;;;;;;7.20;5.97;;;6.30;99.90;;;;;;5082505;28;20527;-73
2022/11/17 09:07:06;;;;;;;6.63;6.07;;;6.30;99.90;;;;;;5101385;28;20388;-73
2022/11/17 09:09:32;;;;;;;7.20;6.60;;;6.30;99.90;;;;;;5100984;28;20479;-73
2022/11/17 09:11:58;;;;;;;6.85;6.15;;;6.40;99.90;;;;;;5103072;28;20047;-73
2022/11/17 09:14:24;;;;;;;6.97;6.30;;;6.40;99.90;;;;;;5101384;28;20093;-73
2022/11/17 09:16:51;;;;;;;6.35;5.80;;;6.30;99.90;;;;;;5101532;28;20060;-73
2022/11/17 09:19:17;;;;;;;7.20;6.20;;;6.40;99.90;;;;;;5101711;28;20034;-73
2022/11/17 09:21:42;;;;;;;6.63;6.13;;;6.40;99.90;;;;;;5100716;28;20036;-73
2022/11/17 09:24:08;;;;;;;6.25;5.75;;;6.40;99.90;;;;;;5101722;28;20031;-73
2022/11/17 09:26:34;;;;;;;7.80;7.00;;;6.40;99.90;;;;;;5086663;28;20506;-73
2022/11/17 09:29:03;;;;;;;6.43;5.82;;;6.40;99.90;;;;;;5104558;28;20035;-73
2022/11/17 09:31:29;;;;;;;5.47;4.97;;;6.40;99.90;;;;;;5108328;28;20105;-73
2022/11/17 09:33:55;;;;;;;5.80;5.30;;;6.40;99.90;;;;;;5098827;28;20040;-73
2022/11/17 09:36:21;;;;;;;5.75;5.15;;;6.40;99.90;;;;;;5092524;27;20096;-74
2022/11/17 09:38:46;;;;;;;6.50;5.90;;;6.40;99.90;;;;;;5118815;27;20055;-73
2022/11/17 09:41:34;;;;;;;6.30;5.68;;;6.40;99.90;;;;;;5117623;27;20119;-73
2022/11/17 09:44:22;;;;;;;6.45;5.88;;;6.40;99.90;;;;;;5119074;27;20585;-73
2022/11/17 09:47:22;;;;;;;6.47;5.80;;;6.40;99.90;;;;;;5106020;27;20043;-73
2022/11/17 09:50:06;;;;;;;5.53;5.03;;;6.40;99.90;;;;;;5121214;27;20090;-74
2022/11/17 09:52:39;;;;;;;5.85;5.32;;;6.40;99.90;;;;;;5104090;27;20174;-73
2022/11/17 09:55:07;;;;;;;5.13;4.70;;;6.40;99.90;;;;;;5121799;27;20067;-73
2022/11/17 09:57:40;;;;;;;5.63;5.13;;;7.70;99.90;;;;;;5120272;27;20103;-73
2022/11/17 10:00:14;;;;;;;6.20;5.60;;;6.40;99.90;;;;;;5121337;27;20038;-74
2022/11/17 10:02:41;;;;;;;5.93;5.43;;;6.50;99.90;;;;;;5104918;27;20051;-74
2022/11/17 10:05:18;;;;;;;5.88;5.38;;;6.50;99.90;;;;;;5121633;27;20043;-73
2022/11/17 10:07:50;;;;;;;6.00;5.50;;;6.50;99.90;;;;;;5119485;27;20047;-74
2022/11/17 10:10:21;;;;;;;5.60;5.10;;;7.10;99.90;;;;;;5127969;27;20035;-73
2022/11/17 10:12:52;;;;;;;4.82;4.43;;;6.50;99.90;;;;;;5119851;27;20053;-74
2022/11/17 10:15:39;;;;;;;5.45;4.95;;;6.50;99.90;;;;;;5117693;27;20082;-73
2022/11/17 10:18:12;;;;;;;5.68;5.10;;;7.60;99.90;;;;;;5122370;27;20398;-73
2022/11/17 10:20:39;;;;;;;5.63;5.13;;;6.50;99.90;;;;;;5104574;27;20044;-74
2022/11/17 10:23:09;;;;;;;5.00;4.50;;;7.10;99.90;;;;;;5123111;27;20032;-74
2022/11/17 10:25:40;;;;;;;5.95;5.45;;;7.20;99.90;;;;;;5117763;27;20130;-74
2022/11/17 10:28:16;;;;;;;6.25;5.65;;;6.40;99.90;;;;;;5108717;27;20058;-74
2022/11/17 10:30:55;;;;;;;7.75;5.45;;;6.40;99.90;;;;;;5101168;27;20039;-74
2022/11/17 10:33:44;;;;;;;5.13;4.63;;;6.50;99.90;;;;;;5121599;27;20116;-74
2022/11/17 10:36:19;;;;;;;4.85;4.20;;;6.50;99.90;;;;;;5103731;27;20050;-73
2022/11/17 10:38:47;;;;;;;5.72;4.80;;;6.50;99.90;;;;;;5106310;27;20119;-74
2022/11/17 10:41:17;;;;;;;6.13;5.60;;;6.50;99.90;;;;;;5138793;27;20080;-74
2022/11/17 10:43:53;;;;;;;5.20;4.80;;;6.50;99.90;;;;;;5108401;27;20038;-74
2022/11/17 10:46:18;;;;;;;5.45;4.95;;;6.80;99.90;;;;;;5122226;27;20043;-73
2022/11/17 10:48:56;;;;;;;5.45;5.05;;;6.50;99.90;;;;;;5150003;27;20502;-74
2022/11/17 10:51:24;;;;;;;4.78;4.43;;;7.80;99.90;;;;;;5127499;27;20038;-74
2022/11/17 10:54:14;;;;;;;4.57;4.18;;;6.50;99.90;;;;;;5123221;27;20060;-74
2022/11/17 10:56:42;;;;;;;6.18;5.05;;;6.50;99.90;;;;;;5122184;27;20114;-74
2022/11/17 10:59:08;;;;;;;5.40;4.75;;;8.20;99.90;;;;;;5141463;27;20397;-74
2022/11/17 11:01:36;;;;;;;4.80;4.43;;;6.50;99.90;;;;;;5141692;27;20126;-74
2022/11/17 11:04:04;;;;;;;5.13;4.70;;;7.50;99.90;;;;;;5124063;27;20031;-74
2022/11/17 11:06:32;;;;;;;5.05;4.65;;;6.50;99.90;;;;;;5121656;27;20529;-74
2022/11/17 11:09:15;;;;;;;5.57;5.07;;;7.50;99.90;;;;;;5122602;27;20039;-74
2022/11/17 11:11:50;;;;;;;6.15;4.43;;;6.50;99.90;;;;;;5123022;27;20382;-74
2022/11/17 11:14:18;;;;;;;;;;;6.60;99.90;;;;;;5123208;27;20113;-74
2022/11/17 11:16:49;;;;;;;4.78;4.38;;;6.50;99.90;;;;;;5108042;27;19930;-74
2022/11/17 11:19:16;;;;;;;4.88;4.05;;;6.50;99.90;;;;;;5122635;27;20030;-73
2022/11/17 11:22:19;;;;;;;3.92;3.55;;;6.50;99.90;;;;;;5140120;27;20039;-73
2022/11/17 11:24:56;;;;;;;3.90;3.60;;;6.60;99.90;;;;;;5127084;27;20043;-74
2022/11/17 11:27:37;;;;;;;4.22;3.92;;;6.50;99.90;;;;;;5119348;28;20039;-74
2022/11/17 11:30:03;;;;;;;4.18;3.80;;;6.50;99.90;;;;;;5128651;27;20109;-74
2022/11/17 11:32:49;;;;;;;4.07;3.65;;;6.50;99.90;;;;;;5103724;27;20877;-73
2022/11/17 11:35:39;;;;;;;3.17;2.97;;;6.60;99.90;;;;;;5121783;27;20035;-73
2022/11/17 11:38:14;;;;;;;3.88;3.60;;;6.60;99.90;;;;;;5109683;27;20134;-73
2022/11/17 11:40:40;;;;;;;;;;;6.60;99.90;;;;;;5125753;27;20042;-73
2022/11/17 11:43:40;;;;;;;3.92;3.05;;;6.60;99.90;;;;;;5102197;27;19919;-73
2022/11/17 11:46:25;;;;;;;4.15;3.85;;;6.60;99.90;;;;;;5107217;27;20470;-73
2022/11/17 11:48:54;;;;;;;3.60;3.30;;;6.60;99.90;;;;;;5142140;27;20049;-73
2022/11/17 11:51:27;;;;;;;3.10;2.90;;;6.70;99.90;;;;;;5104677;27;20134;-74
2022/11/17 11:54:33;;;;;;;3.70;3.50;;;6.60;99.90;;;;;;5128263;27;20658;-73
2022/11/17 11:57:00;;;;;;;3.83;3.53;;;7.90;99.90;;;;;;5117213;27;20436;-73
2022/11/17 11:59:39;;;;;;;3.60;3.30;;;6.70;99.90;;;;;;5142567;27;20034;-73
2022/11/17 12:02:11;;;;;;;4.15;3.80;;;6.70;99.90;;;;;;5112254;27;20045;-72
2022/11/17 12:04:49;;;;;;;4.20;3.90;;;7.40;99.90;;;;;;5123781;27;20390;-73
2022/11/17 12:07:34;;;;;;;4.53;4.15;;;6.70;99.90;;;;;;5110139;27;20035;-74
2022/11/17 12:10:02;;;;;;;;;;;6.70;99.90;;;;;;5152092;27;20048;-74
2022/11/17 12:12:35;;;;;;;5.35;4.57;;;6.70;99.90;;;;;;5150809;27;19923;-74
2022/11/17 12:15:19;;;;;;;5.75;4.38;;;6.70;99.90;;;;;;5146984;27;20045;-73
2022/11/17 12:18:27;;;;;;;4.70;4.30;;;6.40;99.90;;;;;;5132207;27;20099;-73
2022/11/17 12:21:10;;;;;;;5.00;4.60;;;6.70;99.90;;;;;;5130541;27;20047;-74
2022/11/17 12:23:55;;;;;;;5.20;4.70;;;6.70;99.90;;;;;;5151157;27;20042;-74
2022/11/17 12:26:26;;;;;;;4.93;4.53;;;6.70;99.90;;;;;;5145892;27;20042;-74
2022/11/17 12:29:20;;;;;;;4.82;4.43;;;6.80;99.90;;;;;;5144285;27;20114;-74
2022/11/17 12:31:48;;;;;;;5.50;4.80;;;6.80;99.90;;;;;;5145252;27;20044;-75
2022/11/17 12:34:23;;;;;;;4.10;3.80;;;6.70;99.90;;;;;;5126233;27;20231;-74
2022/11/17 12:37:13;;;;;;;4.97;3.95;;;6.80;99.90;;;;;;5125566;27;20093;-74
2022/11/17 12:39:59;;;;;;;4.38;4.07;;;6.70;99.90;;;;;;5124105;27;20058;-73
2022/11/17 12:42:26;;;;;;;4.45;3.92;;;6.70;99.90;;;;;;5142852;27;20038;-74
2022/11/17 12:44:58;;;;;;;4.85;4.07;;;6.80;99.90;;;;;;5127466;27;20069;-74
2022/11/17 12:47:38;;;;;;;3.83;3.53;;;6.80;99.90;;;;;;5126089;27;20031;-73
2022/11/17 12:50:16;;;;;;;4.30;3.90;;;6.80;99.90;;;;;;5144629;27;20051;-74
2022/11/17 12:53:10;;;;;;;4.47;4.07;;;6.80;99.90;;;;;;5127447;27;20039;-73
2022/11/17 12:55:47;;;;;;;4.00;3.70;;;6.80;99.90;;;;;;5143112;27;20109;-73
2022/11/17 12:58:34;;;;;;;4.95;4.00;;;6.80;99.90;;;;;;5142671;27;20509;-73
2022/11/17 13:01:25;;;;;;;4.38;4.00;;;6.20;99.90;;;;;;5148739;27;20086;-73
2022/11/17 13:04:23;;;;;;;4.30;3.90;;;6.90;99.90;;;;;;5125305;27;20039;-73
2022/11/17 13:07:06;;;;;;;4.43;3.97;;;6.90;99.90;;;;;;5142378;27;20050;-73
2022/11/17 13:09:35;;;;;;;4.35;3.97;;;6.90;99.90;;;;;;5130056;27;20043;-74
2022/11/17 13:12:09;;;;;;;4.65;3.97;;;7.10;99.90;;;;;;5101367;27;20045;-73
2022/11/17 13:14:51;;;;;;;5.68;3.72;;;6.90;99.90;;;;;;5113677;27;20554;-73
2022/11/17 13:17:19;;;;;;;5.13;4.63;;;6.90;99.90;;;;;;5105667;27;20133;-73
2022/11/17 13:19:44;;;;;;;6.65;4.68;;;6.90;99.90;;;;;;5129335;27;20053;-73
2022/11/17 13:22:15;;;;;;;3.90;3.60;;;7.30;99.90;;;;;;5107134;27;20125;-74
2022/11/17 13:24:46;;;;;;;8.05;4.03;;;7.00;99.90;;;;;;5125011;27;20383;-74
2022/11/17 13:27:30;;;;;;;4.88;4.05;;;7.00;99.90;;;;;;5126746;27;20041;-74
2022/11/17 13:30:25;;;;;;;4.70;4.25;;;7.00;99.90;;;;;;5126590;27;20073;-74
2022/11/17 13:32:51;;;;;;;6.20;4.25;;;7.10;99.90;;;;;;5144937;27;20062;-75
2022/11/17 13:35:34;;;;;;;4.68;3.60;;;7.00;99.90;;;;;;5109471;27;20653;-74
2022/11/17 13:38:22;;;;;;;4.70;3.83;;;7.10;99.90;;;;;;5130474;27;20063;-75
2022/11/17 13:40:49;;;;;;;4.65;4.03;;;7.10;99.90;;;;;;5147130;27;20043;-75